Currently 63°F in Temecula, California, USA
63°F
63°F / 52°F
11 mph S
0.00"
Wednesday, May 22, 2019 2:33 PM PDT

Temecula, California Weather Summary
Last 36 Hours

Temperature Winds Hourly Humidity Dewpoint
Time Report Norm Report Norm Max Gusts Precip. Rpt. Norm Rpt. Norm Pressure
1Wed 02:33 PM  63.1°F  75°F  11 mph S  10 mph  22 mph  0.00"  63%  52%  50°F  56°F  29.71"
Wed 02:00 PM  63.0°F  75°F  14 mph SW  9 mph  24 mph  0.00"  64%  52%  50°F  56°F  29.71"
2Wed 01:54 PM  63.5°F  75°F  14 mph SW  9 mph  24 mph  ----  63%  52%  50°F  56°F  29.71"
Wed 01:00 PM  62.3°F  74°F  8 mph SW  8 mph  25 mph  0.00"  64%  54%  49°F  56°F  29.73"
Wed 12:00 PM  61.4°F  72°F  9 mph SW  7 mph  21 mph  0.00"  66%  57%  50°F  56°F  29.73"
Wed 11:00 AM  60.7°F  69°F  8 mph SW  5 mph  16 mph  0.00"  71%  63%  51°F  56°F  29.73"
Wed 10:00 AM  56.4°F  65°F  10 mph S  4 mph  16 mph  0.00"  84%  73%  51°F  55°F  29.74"
Wed 09:00 AM  56.3°F  61°F  3 mph SE  3 mph  11 mph  0.00"  90%  82%  53°F  55°F  29.74"
Wed 08:00 AM  54.4°F  58°F  5 mph S  2 mph  11 mph  0.00"  94%  89%  53°F  54°F  29.74"
Wed 07:00 AM  53.6°F  56°F  calm  2 mph  13 mph  0.00"  96%  92%  52°F  53°F  29.73"
Wed 06:00 AM  53.2°F  55°F  3 mph SW  1 mph  16 mph  0.00"  96%  92%  52°F  53°F  29.72"
Wed 05:00 AM  52.6°F  56°F  7 mph S  2 mph  16 mph  0.00"  96%  92%  51°F  53°F  29.71"
3Wed 04:44 AM  52.4°F  56°F  6 mph SW  2 mph  15 mph  ----  96%  92%  51°F  53°F  29.71"
Wed 04:00 AM  52.8°F  56°F  9 mph S  2 mph  14 mph  0.00"  96%  91%  52°F  53°F  29.72"
Wed 03:00 AM  53.3°F  56°F  5 mph S  1 mph  12 mph  0.00"  94%  91%  52°F  54°F  29.74"
Wed 02:00 AM  53.5°F  57°F  4 mph SW  2 mph  16 mph  0.00"  95%  90%  52°F  54°F  29.75"
Wed 01:00 AM  54.0°F  57°F  3 mph W  2 mph  16 mph  0.00"  93%  89%  52°F  54°F  29.77"
Wed 12:00 AM  54.5°F  58°F  9 mph S  2 mph  16 mph  0.00"  93%  88%  52°F  54°F  29.78"
Tue 11:00 PM  54.8°F  59°F  5 mph S  2 mph  14 mph  0.00"  91%  86%  52°F  54°F  29.79"
Tue 10:00 PM  55.0°F  60°F  9 mph S  3 mph  18 mph  0.00"  87%  84%  51°F  55°F  29.81"
Tue 09:00 PM  54.9°F  61°F  11 mph SW  4 mph  18 mph  0.00"  87%  80%  51°F  55°F  29.79"
Tue 08:00 PM  55.5°F  63°F  8 mph SW  5 mph  15 mph  0.00"  85%  75%  51°F  55°F  29.79"
Tue 07:00 PM  57.8°F  67°F  4 mph SW  7 mph  18 mph  0.00"  79%  67%  51°F  55°F  29.78"
Tue 06:00 PM  58.7°F  70°F  7 mph SW  9 mph  21 mph  0.00"  78%  59%  52°F  55°F  29.79"
Tue 05:00 PM  59.2°F  73°F  10 mph SW  10 mph  19 mph  0.00"  80%  54%  53°F  55°F  29.82"
Tue 04:00 PM  62.5°F  75°F  10 mph SW  10 mph  17 mph  0.00"  71%  52%  53°F  55°F  29.83"
Tue 03:00 PM  61.7°F  75°F  8 mph SW  10 mph  24 mph  0.00"  68%  51%  51°F  55°F  29.85"
Tue 02:00 PM  62.5°F  75°F  12 mph SW  9 mph  23 mph  0.00"  69%  52%  52°F  56°F  29.88"
Tue 01:00 PM  62.6°F  74°F  6 mph SW  8 mph  20 mph  0.00"  70%  53%  52°F  55°F  29.89"
Tue 12:00 PM  61.6°F  72°F  9 mph SW  7 mph  21 mph  0.00"  74%  57%  53°F  55°F  29.90"
Tue 11:00 AM  60.2°F  69°F  10 mph SW  5 mph  20 mph  0.00"  80%  63%  54°F  55°F  29.91"
Tue 10:00 AM  58.7°F  65°F  7 mph S  4 mph  19 mph  0.00"  87%  73%  55°F  55°F  29.91"
Tue 09:00 AM  56.1°F  61°F  10 mph S  3 mph  16 mph  0.00"  93%  81%  54°F  55°F  29.93"
Tue 08:00 AM  54.6°F  58°F  8 mph S  2 mph  11 mph  0.00"  95%  88%  53°F  54°F  29.93"
Tue 07:00 AM  54.0°F  56°F  2 mph SW  1 mph  11 mph  0.00"  95%  92%  52°F  53°F  29.94"
Tue 06:00 AM  53.7°F  55°F  4 mph SW  1 mph  9 mph  0.00"  93%  92%  52°F  53°F  29.96"
Tue 05:00 AM  53.1°F  56°F  4 mph S  2 mph  10 mph  0.00"  92%  91%  51°F  53°F  29.94"
Tue 04:00 AM  53.1°F  56°F  6 mph S  2 mph  10 mph  0.00"  93%  91%  51°F  53°F  29.95"
Tue 03:00 AM  53.3°F  56°F  4 mph SW  1 mph  11 mph  0.00"  93%  90%  51°F  53°F  29.96"

  1. Current weather data. No green row appears if the current weather data is also the high or low for the current day.
  2. High temperature for the current day.
  3. Low temperature for the current day.

The Temecula weather pages are a service of WeatherCurrents. Temecula, California is located in the Temecula Valley, in southwestern Riverside County, along the Interstate 15 highway. The Temecula Valley's rolling hills are home to the Temecula wine country, vineyards, golf courses, a casino resort, and Old Town Temecula.
Copyright ©2019  WeatherCurrents. All rights reserved. - Submit questions and comments - Privacy Policy

This page automatically refreshes every 10 minutes.